sensor_id;sensor_type;location;lat;lon;timestamp;P1;durP1;ratioP1;P2;durP2;ratioP2
37973;SDS011;23796;51.458;7.000;2023-04-06T00:02:18;9.50;;;5.97;;
37973;SDS011;23796;51.458;7.000;2023-04-06T00:04:49;11.85;;;6.70;;
37973;SDS011;23796;51.458;7.000;2023-04-06T00:07:15;12.75;;;7.35;;
37973;SDS011;23796;51.458;7.000;2023-04-06T00:09:41;11.15;;;6.05;;
37973;SDS011;23796;51.458;7.000;2023-04-06T00:12:06;10.20;;;6.30;;
37973;SDS011;23796;51.458;7.000;2023-04-06T00:14:32;10.55;;;6.20;;
37973;SDS011;23796;51.458;7.000;2023-04-06T00:16:58;9.07;;;5.93;;
37973;SDS011;23796;51.458;7.000;2023-04-06T00:19:25;11.02;;;6.30;;
37973;SDS011;23796;51.458;7.000;2023-04-06T00:21:51;9.55;;;5.30;;
37973;SDS011;23796;51.458;7.000;2023-04-06T00:24:19;13.43;;;7.18;;
37973;SDS011;23796;51.458;7.000;2023-04-06T00:26:45;10.00;;;6.00;;
37973;SDS011;23796;51.458;7.000;2023-04-06T00:29:13;11.68;;;5.95;;
37973;SDS011;23796;51.458;7.000;2023-04-06T00:31:38;10.00;;;6.53;;
37973;SDS011;23796;51.458;7.000;2023-04-06T00:34:06;9.57;;;6.25;;
37973;SDS011;23796;51.458;7.000;2023-04-06T00:36:32;8.50;;;5.45;;
37973;SDS011;23796;51.458;7.000;2023-04-06T00:39:00;10.52;;;5.85;;
37973;SDS011;23796;51.458;7.000;2023-04-06T00:41:25;9.80;;;5.75;;
37973;SDS011;23796;51.458;7.000;2023-04-06T00:43:51;9.63;;;6.30;;
37973;SDS011;23796;51.458;7.000;2023-04-06T00:46:17;9.88;;;6.15;;
37973;SDS011;23796;51.458;7.000;2023-04-06T00:48:45;10.55;;;5.88;;
37973;SDS011;23796;51.458;7.000;2023-04-06T00:51:13;9.95;;;6.10;;
37973;SDS011;23796;51.458;7.000;2023-04-06T00:53:43;10.90;;;6.35;;
37973;SDS011;23796;51.458;7.000;2023-04-06T00:56:09;8.15;;;5.30;;
37973;SDS011;23796;51.458;7.000;2023-04-06T00:58:35;8.32;;;5.53;;
37973;SDS011;23796;51.458;7.000;2023-04-06T01:01:03;8.25;;;5.22;;
37973;SDS011;23796;51.458;7.000;2023-04-06T01:03:30;10.00;;;5.43;;
37973;SDS011;23796;51.458;7.000;2023-04-06T01:05:58;8.07;;;5.07;;
37973;SDS011;23796;51.458;7.000;2023-04-06T01:08:24;6.88;;;5.15;;
37973;SDS011;23796;51.458;7.000;2023-04-06T01:10:50;7.05;;;5.03;;
37973;SDS011;23796;51.458;7.000;2023-04-06T01:13:16;8.93;;;5.40;;
37973;SDS011;23796;51.458;7.000;2023-04-06T01:15:41;8.57;;;5.72;;
37973;SDS011;23796;51.458;7.000;2023-04-06T01:18:10;8.90;;;5.30;;
37973;SDS011;23796;51.458;7.000;2023-04-06T01:20:36;9.77;;;5.68;;
37973;SDS011;23796;51.458;7.000;2023-04-06T01:23:02;8.77;;;5.75;;
37973;SDS011;23796;51.458;7.000;2023-04-06T01:25:27;8.60;;;5.40;;
37973;SDS011;23796;51.458;7.000;2023-04-06T01:27:53;9.23;;;5.93;;
37973;SDS011;23796;51.458;7.000;2023-04-06T01:30:19;9.68;;;6.05;;
37973;SDS011;23796;51.458;7.000;2023-04-06T01:32:44;7.60;;;4.85;;
37973;SDS011;23796;51.458;7.000;2023-04-06T01:35:10;8.88;;;6.00;;
37973;SDS011;23796;51.458;7.000;2023-04-06T01:37:36;9.10;;;6.13;;
37973;SDS011;23796;51.458;7.000;2023-04-06T01:40:05;11.25;;;6.40;;
37973;SDS011;23796;51.458;7.000;2023-04-06T01:42:31;9.55;;;5.88;;
37973;SDS011;23796;51.458;7.000;2023-04-06T01:44:57;10.10;;;5.47;;
37973;SDS011;23796;51.458;7.000;2023-04-06T01:47:25;8.30;;;6.22;;
37973;SDS011;23796;51.458;7.000;2023-04-06T01:49:50;9.93;;;5.68;;
37973;SDS011;23796;51.458;7.000;2023-04-06T01:52:16;8.80;;;6.18;;
37973;SDS011;23796;51.458;7.000;2023-04-06T01:54:42;11.68;;;6.70;;
37973;SDS011;23796;51.458;7.000;2023-04-06T01:57:08;11.00;;;6.85;;
37973;SDS011;23796;51.458;7.000;2023-04-06T01:59:37;9.68;;;6.18;;
37973;SDS011;23796;51.458;7.000;2023-04-06T02:02:03;15.35;;;9.60;;
37973;SDS011;23796;51.458;7.000;2023-04-06T02:04:28;12.57;;;7.00;;
37973;SDS011;23796;51.458;7.000;2023-04-06T02:06:56;12.00;;;6.97;;
37973;SDS011;23796;51.458;7.000;2023-04-06T02:09:22;9.73;;;6.25;;
37973;SDS011;23796;51.458;7.000;2023-04-06T02:11:47;10.75;;;6.55;;
37973;SDS011;23796;51.458;7.000;2023-04-06T02:14:15;10.50;;;7.47;;
37973;SDS011;23796;51.458;7.000;2023-04-06T02:16:43;12.27;;;7.05;;
37973;SDS011;23796;51.458;7.000;2023-04-06T02:19:09;10.15;;;6.95;;
37973;SDS011;23796;51.458;7.000;2023-04-06T02:21:34;11.45;;;7.75;;
37973;SDS011;23796;51.458;7.000;2023-04-06T02:24:00;12.15;;;7.72;;
37973;SDS011;23796;51.458;7.000;2023-04-06T02:26:26;10.63;;;7.25;;
37973;SDS011;23796;51.458;7.000;2023-04-06T02:28:54;10.07;;;6.85;;
37973;SDS011;23796;51.458;7.000;2023-04-06T02:31:20;10.85;;;7.78;;
37973;SDS011;23796;51.458;7.000;2023-04-06T02:33:45;13.30;;;8.23;;
37973;SDS011;23796;51.458;7.000;2023-04-06T02:36:11;13.35;;;7.68;;
37973;SDS011;23796;51.458;7.000;2023-04-06T02:38:39;9.35;;;6.60;;
37973;SDS011;23796;51.458;7.000;2023-04-06T02:41:05;9.15;;;7.28;;
37973;SDS011;23796;51.458;7.000;2023-04-06T02:43:33;12.02;;;7.50;;
37973;SDS011;23796;51.458;7.000;2023-04-06T02:45:59;9.75;;;7.10;;
37973;SDS011;23796;51.458;7.000;2023-04-06T02:48:25;10.98;;;7.40;;
37973;SDS011;23796;51.458;7.000;2023-04-06T02:50:51;9.95;;;6.95;;
37973;SDS011;23796;51.458;7.000;2023-04-06T02:53:16;9.40;;;6.57;;
37973;SDS011;23796;51.458;7.000;2023-04-06T02:55:44;9.73;;;6.60;;
37973;SDS011;23796;51.458;7.000;2023-04-06T02:58:10;12.02;;;7.07;;
37973;SDS011;23796;51.458;7.000;2023-04-06T03:00:36;9.23;;;6.80;;
37973;SDS011;23796;51.458;7.000;2023-04-06T03:03:02;11.90;;;7.32;;
37973;SDS011;23796;51.458;7.000;2023-04-06T03:05:28;10.27;;;7.00;;
37973;SDS011;23796;51.458;7.000;2023-04-06T03:07:53;10.27;;;6.50;;
37973;SDS011;23796;51.458;7.000;2023-04-06T03:10:21;9.38;;;6.30;;
37973;SDS011;23796;51.458;7.000;2023-04-06T03:12:47;9.93;;;7.25;;
37973;SDS011;23796;51.458;7.000;2023-04-06T03:15:13;10.20;;;6.18;;
37973;SDS011;23796;51.458;7.000;2023-04-06T03:17:40;8.90;;;6.40;;
37973;SDS011;23796;51.458;7.000;2023-04-06T03:20:06;9.32;;;6.32;;
37973;SDS011;23796;51.458;7.000;2023-04-06T03:22:32;9.75;;;6.47;;
37973;SDS011;23796;51.458;7.000;2023-04-06T03:25:00;9.15;;;6.50;;
37973;SDS011;23796;51.458;7.000;2023-04-06T03:27:26;9.32;;;6.28;;
37973;SDS011;23796;51.458;7.000;2023-04-06T03:29:51;9.88;;;6.30;;
37973;SDS011;23796;51.458;7.000;2023-04-06T03:32:17;11.68;;;7.93;;
37973;SDS011;23796;51.458;7.000;2023-04-06T03:34:43;11.73;;;7.38;;
37973;SDS011;23796;51.458;7.000;2023-04-06T03:37:08;10.88;;;6.88;;
37973;SDS011;23796;51.458;7.000;2023-04-06T03:39:34;11.07;;;7.18;;
37973;SDS011;23796;51.458;7.000;2023-04-06T03:42:00;8.98;;;6.60;;
37973;SDS011;23796;51.458;7.000;2023-04-06T03:44:27;9.25;;;5.90;;
37973;SDS011;23796;51.458;7.000;2023-04-06T03:46:55;9.30;;;6.18;;
37973;SDS011;23796;51.458;7.000;2023-04-06T03:49:21;10.15;;;6.53;;
37973;SDS011;23796;51.458;7.000;2023-04-06T03:51:47;12.75;;;7.35;;
37973;SDS011;23796;51.458;7.000;2023-04-06T03:54:12;10.35;;;6.88;;
37973;SDS011;23796;51.458;7.000;2023-04-06T03:56:38;11.07;;;6.97;;
37973;SDS011;23796;51.458;7.000;2023-04-06T03:59:03;8.93;;;5.93;;
37973;SDS011;23796;51.458;7.000;2023-04-06T04:01:29;9.40;;;6.72;;
37973;SDS011;23796;51.458;7.000;2023-04-06T04:03:57;10.10;;;6.90;;
37973;SDS011;23796;51.458;7.000;2023-04-06T04:06:25;11.85;;;6.90;;
37973;SDS011;23796;51.458;7.000;2023-04-06T04:08:51;9.65;;;6.30;;
37973;SDS011;23796;51.458;7.000;2023-04-06T04:11:17;8.57;;;6.32;;
37973;SDS011;23796;51.458;7.000;2023-04-06T04:13:42;8.98;;;6.43;;
37973;SDS011;23796;51.458;7.000;2023-04-06T04:16:08;8.18;;;6.10;;
37973;SDS011;23796;51.458;7.000;2023-04-06T04:18:34;11.43;;;6.88;;
37973;SDS011;23796;51.458;7.000;2023-04-06T04:21:02;11.10;;;7.45;;
37973;SDS011;23796;51.458;7.000;2023-04-06T04:23:28;9.35;;;6.28;;
37973;SDS011;23796;51.458;7.000;2023-04-06T04:25:53;10.88;;;6.78;;
37973;SDS011;23796;51.458;7.000;2023-04-06T04:28:19;12.38;;;6.68;;
37973;SDS011;23796;51.458;7.000;2023-04-06T04:30:45;10.48;;;6.40;;
37973;SDS011;23796;51.458;7.000;2023-04-06T04:33:11;9.95;;;6.57;;
37973;SDS011;23796;51.458;7.000;2023-04-06T04:35:37;9.98;;;6.80;;
37973;SDS011;23796;51.458;7.000;2023-04-06T04:38:04;11.93;;;6.10;;
37973;SDS011;23796;51.458;7.000;2023-04-06T04:40:33;9.30;;;6.63;;
37973;SDS011;23796;51.458;7.000;2023-04-06T04:42:58;12.02;;;6.40;;
37973;SDS011;23796;51.458;7.000;2023-04-06T04:45:26;10.00;;;6.20;;
37973;SDS011;23796;51.458;7.000;2023-04-06T04:47:52;11.85;;;8.82;;
37973;SDS011;23796;51.458;7.000;2023-04-06T04:50:17;8.77;;;6.32;;
37973;SDS011;23796;51.458;7.000;2023-04-06T04:52:43;10.93;;;6.22;;
37973;SDS011;23796;51.458;7.000;2023-04-06T04:55:09;12.82;;;5.65;;
37973;SDS011;23796;51.458;7.000;2023-04-06T04:57:34;9.48;;;6.07;;
37973;SDS011;23796;51.458;7.000;2023-04-06T05:00:02;7.60;;;5.57;;
37973;SDS011;23796;51.458;7.000;2023-04-06T05:02:30;9.18;;;6.10;;
37973;SDS011;23796;51.458;7.000;2023-04-06T05:04:56;7.72;;;5.18;;
37973;SDS011;23796;51.458;7.000;2023-04-06T05:07:22;8.27;;;5.35;;
37973;SDS011;23796;51.458;7.000;2023-04-06T05:09:47;8.27;;;5.50;;
37973;SDS011;23796;51.458;7.000;2023-04-06T05:12:13;7.28;;;5.38;;
37973;SDS011;23796;51.458;7.000;2023-04-06T05:14:39;9.07;;;5.68;;
37973;SDS011;23796;51.458;7.000;2023-04-06T05:17:05;9.75;;;5.95;;
37973;SDS011;23796;51.458;7.000;2023-04-06T05:19:31;7.47;;;5.15;;
37973;SDS011;23796;51.458;7.000;2023-04-06T05:21:56;8.13;;;5.30;;
37973;SDS011;23796;51.458;7.000;2023-04-06T05:24:22;8.70;;;5.32;;
37973;SDS011;23796;51.458;7.000;2023-04-06T05:26:48;9.30;;;5.32;;
37973;SDS011;23796;51.458;7.000;2023-04-06T05:29:16;11.40;;;5.78;;
37973;SDS011;23796;51.458;7.000;2023-04-06T05:31:43;11.70;;;5.60;;
37973;SDS011;23796;51.458;7.000;2023-04-06T05:34:09;8.52;;;5.22;;
37973;SDS011;23796;51.458;7.000;2023-04-06T05:36:35;10.07;;;6.20;;
37973;SDS011;23796;51.458;7.000;2023-04-06T05:39:01;9.85;;;7.63;;
37973;SDS011;23796;51.458;7.000;2023-04-06T05:41:26;7.95;;;5.68;;
37973;SDS011;23796;51.458;7.000;2023-04-06T05:43:54;11.10;;;6.95;;
37973;SDS011;23796;51.458;7.000;2023-04-06T05:46:20;10.45;;;5.75;;
37973;SDS011;23796;51.458;7.000;2023-04-06T05:48:48;10.00;;;5.20;;
37973;SDS011;23796;51.458;7.000;2023-04-06T05:51:14;10.85;;;5.07;;
37973;SDS011;23796;51.458;7.000;2023-04-06T05:53:40;12.50;;;5.75;;
37973;SDS011;23796;51.458;7.000;2023-04-06T05:56:06;7.57;;;5.38;;
37973;SDS011;23796;51.458;7.000;2023-04-06T05:58:32;10.25;;;5.63;;
37973;SDS011;23796;51.458;7.000;2023-04-06T06:01:00;6.80;;;4.55;;
37973;SDS011;23796;51.458;7.000;2023-04-06T06:03:26;8.52;;;5.43;;
37973;SDS011;23796;51.458;7.000;2023-04-06T06:05:52;7.93;;;5.00;;
37973;SDS011;23796;51.458;7.000;2023-04-06T06:08:24;7.53;;;5.20;;
37973;SDS011;23796;51.458;7.000;2023-04-06T06:10:52;7.97;;;5.35;;
37973;SDS011;23796;51.458;7.000;2023-04-06T06:13:17;7.13;;;4.85;;
37973;SDS011;23796;51.458;7.000;2023-04-06T06:15:46;8.95;;;5.03;;
37973;SDS011;23796;51.458;7.000;2023-04-06T06:18:11;8.95;;;5.05;;
37973;SDS011;23796;51.458;7.000;2023-04-06T06:20:39;7.60;;;5.18;;
37973;SDS011;23796;51.458;7.000;2023-04-06T06:23:05;10.27;;;4.85;;
37973;SDS011;23796;51.458;7.000;2023-04-06T06:25:31;7.95;;;5.13;;
37973;SDS011;23796;51.458;7.000;2023-04-06T06:27:58;9.07;;;5.50;;
37973;SDS011;23796;51.458;7.000;2023-04-06T06:30:24;9.63;;;5.63;;
37973;SDS011;23796;51.458;7.000;2023-04-06T06:32:51;8.57;;;5.43;;
37973;SDS011;23796;51.458;7.000;2023-04-06T06:35:17;9.02;;;5.03;;
37973;SDS011;23796;51.458;7.000;2023-04-06T06:37:43;9.85;;;5.80;;
37973;SDS011;23796;51.458;7.000;2023-04-06T06:40:09;7.78;;;4.90;;
37973;SDS011;23796;51.458;7.000;2023-04-06T06:42:40;7.40;;;5.28;;
37973;SDS011;23796;51.458;7.000;2023-04-06T06:45:06;9.25;;;5.18;;
37973;SDS011;23796;51.458;7.000;2023-04-06T06:47:34;9.02;;;6.40;;
37973;SDS011;23796;51.458;7.000;2023-04-06T06:50:00;8.13;;;5.40;;
37973;SDS011;23796;51.458;7.000;2023-04-06T06:52:27;7.50;;;4.95;;
37973;SDS011;23796;51.458;7.000;2023-04-06T06:54:55;9.50;;;4.80;;
37973;SDS011;23796;51.458;7.000;2023-04-06T06:57:23;9.18;;;5.28;;
37973;SDS011;23796;51.458;7.000;2023-04-06T06:59:51;9.43;;;5.28;;
37973;SDS011;23796;51.458;7.000;2023-04-06T07:02:17;7.05;;;4.97;;
37973;SDS011;23796;51.458;7.000;2023-04-06T07:04:42;9.93;;;5.55;;
37973;SDS011;23796;51.458;7.000;2023-04-06T07:07:08;7.75;;;5.25;;
37973;SDS011;23796;51.458;7.000;2023-04-06T07:09:36;9.48;;;5.68;;
37973;SDS011;23796;51.458;7.000;2023-04-06T07:12:01;8.13;;;5.13;;
37973;SDS011;23796;51.458;7.000;2023-04-06T07:14:27;8.98;;;5.40;;
37973;SDS011;23796;51.458;7.000;2023-04-06T07:16:53;7.93;;;4.70;;
37973;SDS011;23796;51.458;7.000;2023-04-06T07:19:21;8.00;;;5.30;;
37973;SDS011;23796;51.458;7.000;2023-04-06T07:21:46;7.95;;;5.57;;
37973;SDS011;23796;51.458;7.000;2023-04-06T07:24:14;8.13;;;5.30;;
37973;SDS011;23796;51.458;7.000;2023-04-06T07:26:42;7.68;;;5.53;;
37973;SDS011;23796;51.458;7.000;2023-04-06T07:29:08;7.85;;;4.80;;
37973;SDS011;23796;51.458;7.000;2023-04-06T07:31:33;9.18;;;4.60;;
37973;SDS011;23796;51.458;7.000;2023-04-06T07:34:01;9.10;;;5.15;;
37973;SDS011;23796;51.458;7.000;2023-04-06T07:36:29;8.27;;;5.50;;
37973;SDS011;23796;51.458;7.000;2023-04-06T07:38:54;8.00;;;5.68;;
37973;SDS011;23796;51.458;7.000;2023-04-06T07:41:22;9.85;;;5.78;;
37973;SDS011;23796;51.458;7.000;2023-04-06T07:43:51;9.13;;;5.78;;
37973;SDS011;23796;51.458;7.000;2023-04-06T07:46:16;8.70;;;5.68;;
37973;SDS011;23796;51.458;7.000;2023-04-06T07:48:42;9.65;;;6.25;;
37973;SDS011;23796;51.458;7.000;2023-04-06T07:51:07;9.52;;;6.43;;
37973;SDS011;23796;51.458;7.000;2023-04-06T07:53:35;9.07;;;6.40;;
37973;SDS011;23796;51.458;7.000;2023-04-06T07:56:03;8.00;;;6.05;;
37973;SDS011;23796;51.458;7.000;2023-04-06T07:58:29;8.98;;;6.53;;
37973;SDS011;23796;51.458;7.000;2023-04-06T08:00:55;9.57;;;5.90;;
37973;SDS011;23796;51.458;7.000;2023-04-06T08:03:22;11.60;;;6.25;;
37973;SDS011;23796;51.458;7.000;2023-04-06T08:05:51;10.63;;;6.63;;
37973;SDS011;23796;51.458;7.000;2023-04-06T08:08:18;9.05;;;6.53;;
37973;SDS011;23796;51.458;7.000;2023-04-06T08:10:44;9.13;;;6.68;;
37973;SDS011;23796;51.458;7.000;2023-04-06T08:13:10;9.75;;;6.82;;
37973;SDS011;23796;51.458;7.000;2023-04-06T08:15:36;10.40;;;6.82;;
37973;SDS011;23796;51.458;7.000;2023-04-06T08:18:04;11.00;;;8.10;;
37973;SDS011;23796;51.458;7.000;2023-04-06T08:20:30;9.65;;;7.70;;
37973;SDS011;23796;51.458;7.000;2023-04-06T08:22:56;9.90;;;6.68;;
37973;SDS011;23796;51.458;7.000;2023-04-06T08:25:21;9.55;;;6.65;;
37973;SDS011;23796;51.458;7.000;2023-04-06T08:27:47;8.57;;;6.82;;
37973;SDS011;23796;51.458;7.000;2023-04-06T08:30:15;9.88;;;7.15;;
37973;SDS011;23796;51.458;7.000;2023-04-06T08:32:41;11.80;;;7.93;;
37973;SDS011;23796;51.458;7.000;2023-04-06T08:35:07;10.43;;;7.65;;
37973;SDS011;23796;51.458;7.000;2023-04-06T08:37:33;13.25;;;7.75;;
37973;SDS011;23796;51.458;7.000;2023-04-06T08:39:59;9.43;;;7.00;;
37973;SDS011;23796;51.458;7.000;2023-04-06T08:42:28;11.80;;;7.60;;
37973;SDS011;23796;51.458;7.000;2023-04-06T08:44:57;10.63;;;7.07;;
37973;SDS011;23796;51.458;7.000;2023-04-06T08:47:24;11.30;;;7.40;;
37973;SDS011;23796;51.458;7.000;2023-04-06T08:49:50;10.38;;;7.93;;
37973;SDS011;23796;51.458;7.000;2023-04-06T08:52:17;9.20;;;7.20;;
37973;SDS011;23796;51.458;7.000;2023-04-06T08:54:44;10.35;;;7.32;;
37973;SDS011;23796;51.458;7.000;2023-04-06T08:57:12;11.82;;;8.25;;
37973;SDS011;23796;51.458;7.000;2023-04-06T08:59:38;12.82;;;8.23;;
37973;SDS011;23796;51.458;7.000;2023-04-06T09:02:07;11.60;;;7.75;;
37973;SDS011;23796;51.458;7.000;2023-04-06T09:04:40;10.88;;;7.57;;
37973;SDS011;23796;51.458;7.000;2023-04-06T09:07:08;11.57;;;8.65;;
37973;SDS011;23796;51.458;7.000;2023-04-06T09:09:34;10.55;;;7.95;;
37973;SDS011;23796;51.458;7.000;2023-04-06T09:12:02;12.48;;;8.90;;
37973;SDS011;23796;51.458;7.000;2023-04-06T09:14:34;10.38;;;8.07;;
37973;SDS011;23796;51.458;7.000;2023-04-06T09:17:02;11.18;;;8.30;;
37973;SDS011;23796;51.458;7.000;2023-04-06T09:19:29;12.85;;;8.30;;
37973;SDS011;23796;51.458;7.000;2023-04-06T09:22:02;12.02;;;8.35;;
37973;SDS011;23796;51.458;7.000;2023-04-06T09:24:38;14.82;;;8.23;;
37973;SDS011;23796;51.458;7.000;2023-04-06T09:27:11;13.63;;;8.77;;
37973;SDS011;23796;51.458;7.000;2023-04-06T09:29:40;13.68;;;8.65;;
37973;SDS011;23796;51.458;7.000;2023-04-06T09:32:10;11.63;;;8.32;;
37973;SDS011;23796;51.458;7.000;2023-04-06T09:34:39;13.45;;;9.43;;
37973;SDS011;23796;51.458;7.000;2023-04-06T09:37:19;13.35;;;9.55;;
37973;SDS011;23796;51.458;7.000;2023-04-06T09:39:45;12.88;;;9.75;;
37973;SDS011;23796;51.458;7.000;2023-04-06T09:42:23;12.68;;;9.50;;
37973;SDS011;23796;51.458;7.000;2023-04-06T09:44:50;14.63;;;9.98;;
37973;SDS011;23796;51.458;7.000;2023-04-06T09:47:17;15.10;;;10.75;;
37973;SDS011;23796;51.458;7.000;2023-04-06T09:49:45;14.07;;;10.02;;
37973;SDS011;23796;51.458;7.000;2023-04-06T09:52:15;13.52;;;9.77;;
37973;SDS011;23796;51.458;7.000;2023-04-06T09:54:43;14.63;;;10.13;;
37973;SDS011;23796;51.458;7.000;2023-04-06T10:07:49;13.20;;;10.13;;
37973;SDS011;23796;51.458;7.000;2023-04-06T10:10:19;13.27;;;10.35;;
37973;SDS011;23796;51.458;7.000;2023-04-06T10:12:45;17.02;;;10.32;;
37973;SDS011;23796;51.458;7.000;2023-04-06T10:15:14;13.60;;;9.65;;
37973;SDS011;23796;51.458;7.000;2023-04-06T10:17:43;12.90;;;9.85;;
37973;SDS011;23796;51.458;7.000;2023-04-06T10:20:11;14.27;;;9.77;;
37973;SDS011;23796;51.458;7.000;2023-04-06T10:22:45;12.45;;;9.30;;
37973;SDS011;23796;51.458;7.000;2023-04-06T10:25:28;11.95;;;9.38;;
37973;SDS011;23796;51.458;7.000;2023-04-06T10:28:08;12.57;;;9.98;;
37973;SDS011;23796;51.458;7.000;2023-04-06T10:30:41;11.35;;;8.98;;
37973;SDS011;23796;51.458;7.000;2023-04-06T10:33:15;11.63;;;8.93;;
37973;SDS011;23796;51.458;7.000;2023-04-06T10:35:41;12.35;;;9.65;;
37973;SDS011;23796;51.458;7.000;2023-04-06T10:38:07;13.95;;;9.55;;
37973;SDS011;23796;51.458;7.000;2023-04-06T10:40:36;13.65;;;9.82;;
37973;SDS011;23796;51.458;7.000;2023-04-06T10:43:07;14.75;;;10.32;;
37973;SDS011;23796;51.458;7.000;2023-04-06T10:45:36;13.75;;;10.00;;
37973;SDS011;23796;51.458;7.000;2023-04-06T10:48:18;12.68;;;9.45;;
37973;SDS011;23796;51.458;7.000;2023-04-06T10:50:48;12.35;;;9.35;;
37973;SDS011;23796;51.458;7.000;2023-04-06T10:53:27;14.65;;;10.52;;
37973;SDS011;23796;51.458;7.000;2023-04-06T10:55:54;14.32;;;10.07;;
37973;SDS011;23796;51.458;7.000;2023-04-06T10:58:24;11.93;;;9.52;;
37973;SDS011;23796;51.458;7.000;2023-04-06T11:00:50;12.90;;;10.32;;
37973;SDS011;23796;51.458;7.000;2023-04-06T11:03:19;12.05;;;10.05;;
37973;SDS011;23796;51.458;7.000;2023-04-06T11:05:48;13.00;;;9.82;;
37973;SDS011;23796;51.458;7.000;2023-04-06T11:08:30;15.27;;;10.23;;
37973;SDS011;23796;51.458;7.000;2023-04-06T11:11:07;14.35;;;10.80;;
37973;SDS011;23796;51.458;7.000;2023-04-06T11:13:38;15.65;;;10.75;;
37973;SDS011;23796;51.458;7.000;2023-04-06T11:18:37;14.68;;;9.75;;
37973;SDS011;23796;51.458;7.000;2023-04-06T11:21:03;14.40;;;9.85;;
37973;SDS011;23796;51.458;7.000;2023-04-06T11:23:28;13.23;;;10.25;;
37973;SDS011;23796;51.458;7.000;2023-04-06T11:25:54;15.95;;;10.50;;
37973;SDS011;23796;51.458;7.000;2023-04-06T11:28:22;13.52;;;9.82;;
37973;SDS011;23796;51.458;7.000;2023-04-06T11:30:48;12.70;;;9.85;;
37973;SDS011;23796;51.458;7.000;2023-04-06T11:33:21;14.40;;;11.45;;
37973;SDS011;23796;51.458;7.000;2023-04-06T11:35:47;14.20;;;10.57;;
37973;SDS011;23796;51.458;7.000;2023-04-06T11:38:17;13.23;;;10.77;;
37973;SDS011;23796;51.458;7.000;2023-04-06T11:40:44;13.73;;;10.15;;
37973;SDS011;23796;51.458;7.000;2023-04-06T11:43:13;12.75;;;10.63;;
37973;SDS011;23796;51.458;7.000;2023-04-06T11:45:39;13.65;;;10.95;;
37973;SDS011;23796;51.458;7.000;2023-04-06T11:48:17;16.02;;;11.15;;
37973;SDS011;23796;51.458;7.000;2023-04-06T11:50:46;11.93;;;9.90;;
37973;SDS011;23796;51.458;7.000;2023-04-06T11:53:19;16.05;;;10.63;;
37973;SDS011;23796;51.458;7.000;2023-04-06T11:55:45;15.02;;;11.15;;
37973;SDS011;23796;51.458;7.000;2023-04-06T11:58:12;14.48;;;10.63;;
37973;SDS011;23796;51.458;7.000;2023-04-06T12:00:37;14.80;;;11.13;;
37973;SDS011;23796;51.458;7.000;2023-04-06T12:03:10;14.35;;;11.05;;
37973;SDS011;23796;51.458;7.000;2023-04-06T12:05:39;14.75;;;10.73;;
37973;SDS011;23796;51.458;7.000;2023-04-06T12:08:05;12.95;;;10.60;;
37973;SDS011;23796;51.458;7.000;2023-04-06T12:10:33;14.73;;;10.63;;
37973;SDS011;23796;51.458;7.000;2023-04-06T12:13:01;13.18;;;10.00;;
37973;SDS011;23796;51.458;7.000;2023-04-06T12:15:29;15.93;;;11.35;;
37973;SDS011;23796;51.458;7.000;2023-04-06T12:17:54;14.48;;;11.10;;
37973;SDS011;23796;51.458;7.000;2023-04-06T12:20:22;15.32;;;11.20;;
37973;SDS011;23796;51.458;7.000;2023-04-06T12:22:48;14.38;;;10.27;;
37973;SDS011;23796;51.458;7.000;2023-04-06T12:25:16;17.13;;;11.55;;
37973;SDS011;23796;51.458;7.000;2023-04-06T12:27:42;13.38;;;10.75;;
37973;SDS011;23796;51.458;7.000;2023-04-06T12:30:10;14.57;;;11.10;;
37973;SDS011;23796;51.458;7.000;2023-04-06T12:32:36;15.00;;;10.98;;
37973;SDS011;23796;51.458;7.000;2023-04-06T12:35:02;15.80;;;10.73;;
37973;SDS011;23796;51.458;7.000;2023-04-06T12:37:27;15.15;;;10.90;;
37973;SDS011;23796;51.458;7.000;2023-04-06T12:39:55;15.43;;;11.13;;
37973;SDS011;23796;51.458;7.000;2023-04-06T12:42:23;16.42;;;11.02;;
37973;SDS011;23796;51.458;7.000;2023-04-06T12:44:49;15.80;;;11.63;;
37973;SDS011;23796;51.458;7.000;2023-04-06T12:47:15;14.68;;;11.50;;
37973;SDS011;23796;51.458;7.000;2023-04-06T12:49:43;14.68;;;10.95;;
37973;SDS011;23796;51.458;7.000;2023-04-06T12:52:09;13.93;;;10.73;;
37973;SDS011;23796;51.458;7.000;2023-04-06T12:54:35;12.07;;;10.00;;
37973;SDS011;23796;51.458;7.000;2023-04-06T12:57:01;16.35;;;11.75;;
37973;SDS011;23796;51.458;7.000;2023-04-06T12:59:29;12.43;;;10.30;;
37973;SDS011;23796;51.458;7.000;2023-04-06T13:01:59;13.43;;;10.20;;
37973;SDS011;23796;51.458;7.000;2023-04-06T13:04:27;12.65;;;10.00;;
37973;SDS011;23796;51.458;7.000;2023-04-06T13:06:53;12.55;;;9.77;;
37973;SDS011;23796;51.458;7.000;2023-04-06T13:09:18;14.85;;;10.13;;
37973;SDS011;23796;51.458;7.000;2023-04-06T13:11:44;13.50;;;10.00;;
37973;SDS011;23796;51.458;7.000;2023-04-06T13:14:10;11.82;;;10.38;;
37973;SDS011;23796;51.458;7.000;2023-04-06T13:16:36;11.75;;;10.25;;
37973;SDS011;23796;51.458;7.000;2023-04-06T13:19:02;12.82;;;9.07;;
37973;SDS011;23796;51.458;7.000;2023-04-06T13:21:28;13.05;;;9.25;;
37973;SDS011;23796;51.458;7.000;2023-04-06T13:23:54;16.60;;;10.57;;
37973;SDS011;23796;51.458;7.000;2023-04-06T13:26:20;11.57;;;9.68;;
37973;SDS011;23796;51.458;7.000;2023-04-06T13:28:48;14.00;;;9.57;;
37973;SDS011;23796;51.458;7.000;2023-04-06T13:31:16;18.52;;;9.98;;
37973;SDS011;23796;51.458;7.000;2023-04-06T13:33:42;13.38;;;9.23;;
37973;SDS011;23796;51.458;7.000;2023-04-06T13:36:07;12.18;;;8.65;;
37973;SDS011;23796;51.458;7.000;2023-04-06T13:38:35;12.82;;;9.50;;
37973;SDS011;23796;51.458;7.000;2023-04-06T13:41:03;13.10;;;8.60;;
37973;SDS011;23796;51.458;7.000;2023-04-06T13:43:32;11.50;;;8.60;;
37973;SDS011;23796;51.458;7.000;2023-04-06T13:45:58;9.68;;;7.80;;
37973;SDS011;23796;51.458;7.000;2023-04-06T13:48:26;12.90;;;8.88;;
37973;SDS011;23796;51.458;7.000;2023-04-06T13:50:51;12.55;;;8.63;;
37973;SDS011;23796;51.458;7.000;2023-04-06T13:53:19;15.80;;;8.55;;
37973;SDS011;23796;51.458;7.000;2023-04-06T13:55:51;10.43;;;8.52;;
37973;SDS011;23796;51.458;7.000;2023-04-06T13:58:20;11.90;;;8.02;;
37973;SDS011;23796;51.458;7.000;2023-04-06T14:00:46;10.57;;;8.57;;
37973;SDS011;23796;51.458;7.000;2023-04-06T14:03:11;10.38;;;7.82;;
37973;SDS011;23796;51.458;7.000;2023-04-06T14:05:37;16.35;;;8.35;;
37973;SDS011;23796;51.458;7.000;2023-04-06T14:08:03;11.55;;;7.65;;
37973;SDS011;23796;51.458;7.000;2023-04-06T14:10:28;9.43;;;7.22;;
37973;SDS011;23796;51.458;7.000;2023-04-06T14:12:56;9.77;;;6.68;;
37973;SDS011;23796;51.458;7.000;2023-04-06T14:15:23;9.48;;;7.10;;
37973;SDS011;23796;51.458;7.000;2023-04-06T14:17:48;12.45;;;8.27;;
37973;SDS011;23796;51.458;7.000;2023-04-06T14:20:15;10.45;;;7.57;;
37973;SDS011;23796;51.458;7.000;2023-04-06T14:22:41;10.00;;;7.80;;
37973;SDS011;23796;51.458;7.000;2023-04-06T14:25:07;11.63;;;7.57;;
37973;SDS011;23796;51.458;7.000;2023-04-06T14:27:33;11.68;;;7.32;;
37973;SDS011;23796;51.458;7.000;2023-04-06T14:30:01;9.02;;;6.75;;
37973;SDS011;23796;51.458;7.000;2023-04-06T14:32:27;8.48;;;6.55;;
37973;SDS011;23796;51.458;7.000;2023-04-06T14:34:53;9.13;;;6.90;;
37973;SDS011;23796;51.458;7.000;2023-04-06T14:37:18;12.60;;;6.80;;
37973;SDS011;23796;51.458;7.000;2023-04-06T14:39:45;14.23;;;6.82;;
37973;SDS011;23796;51.458;7.000;2023-04-06T14:42:11;9.65;;;6.80;;
37973;SDS011;23796;51.458;7.000;2023-04-06T14:44:37;8.85;;;6.30;;
37973;SDS011;23796;51.458;7.000;2023-04-06T14:47:07;8.35;;;6.07;;
37973;SDS011;23796;51.458;7.000;2023-04-06T14:49:34;8.00;;;5.82;;
37973;SDS011;23796;51.458;7.000;2023-04-06T14:51:59;10.13;;;6.00;;